Portada
METAR-TAF:

METAR-TAF

Aeropuertos :

Aeropuerto de Žilina

Žilina, Eslovaquia

latitud: 49-14N, longitud: 018-36-49E, altitud: 312 m

Observación

El informe se hizo hace 35 minutos, a las 23:00 UTC
Viento 2 kt con dirección variable
Temperatura 9°C
Humedad 87%
Presión 1025 hPa
Visibilidad 10 km o más
Cielo nuboso a una altura de 5800 ft

METAR: LZZI 212300Z VRB02KT 9999 BKN058 09/07 Q1025

Hora: 01:35 (23:35 UTC)

Pronóstico

El informe se hizo hace 35 minutos, a las 23:00 UTC
Pronóstico válido del 22 a las 00 UTC al 22 a las 09 UTC
Viento 2 kt con dirección variable
Visibilidad 10 km o más
Escasas nubes a una altura de 2500 ft
Cielo nuboso a una altura de 4000 ft
Temporalmente
del 22 a las 00 UTC al 22 a las 09 UTC
Visibilidad: 4000 m
Cielo nuboso a una altura de 1300 ft
Cielo nuboso a una altura de 2500 ft
lluvia

TAF: LZZI 212300Z 2200/2209 VRB02KT 9999 FEW025 BKN040 TEMPO 2200/2209 4000 RA BKN013 BKN025

Observaciones y pronósticos meteorológicos de más de 4000 aeropuertos (mensajes METAR y TAF).

Los puntos amarillos y rojos representan las estaciones disponibles.

Ponga el ratón en el punto deseado para ver el nombre de la estación.

Haga clic para ver las observaciones y los pronósticos meteorológicos.

Para cambiar el mapa : haga clic en los botones verdes con una cruz de color negro para hacer un zoom, en el botón verde con un guión para alejar o en las flechas verdes para mapas adyacentes.


METAR-TAF: